Time;durP1;ratioP1;P1;durP2;ratioP2;P2;SDS_P1;SDS_P2;PMS_P1;PMS_P2;Temp;Humidity;BMP_temperature;BMP_pressure;BME280_temperature;BME280_humidity;BME280_pressure;Samples;Min_cycle;Max_cycle;Signal;HPM_P1;HPM_P2
2024/01/31 00:00:55;;;;;;;18.67;9.77;;;7.20;99.90;;;;;;5047646;28;20252;-68
2024/01/31 00:03:23;;;;;;;15.90;8.23;;;7.20;99.90;;;;;;5048418;28;20709;-70
2024/01/31 00:05:50;;;;;;;13.60;8.20;;;7.20;99.90;;;;;;5048536;28;20190;-70
2024/01/31 00:08:17;;;;;;;20.60;10.17;;;7.20;99.90;;;;;;5049771;28;20282;-68
2024/01/31 00:10:44;;;;;;;19.30;9.97;;;7.20;99.90;;;;;;5049870;28;20229;-67
2024/01/31 00:13:11;;;;;;;17.67;9.77;;;7.30;99.90;;;;;;5048275;28;20332;-70
2024/01/31 00:15:38;;;;;;;21.67;11.60;;;7.30;99.90;;;;;;5049070;28;20194;-70
2024/01/31 00:18:06;;;;;;;22.13;11.40;;;7.30;99.90;;;;;;5049267;28;20260;-69
2024/01/31 00:20:35;;;;;;;21.70;11.57;;;7.30;99.90;;;;;;5049404;28;20634;-69
2024/01/31 00:23:02;;;;;;;20.07;10.40;;;7.30;99.90;;;;;;5049165;28;20188;-69
2024/01/31 00:25:29;;;;;;;17.03;9.83;;;7.40;99.90;;;;;;5048106;28;20263;-68
2024/01/31 00:27:56;;;;;;;18.07;9.80;;;7.40;99.90;;;;;;5049205;28;20538;-68
2024/01/31 00:30:23;;;;;;;16.63;8.97;;;7.50;99.90;;;;;;5046930;28;20277;-69
2024/01/31 00:32:50;;;;;;;16.67;8.63;;;7.50;99.90;;;;;;5048665;28;20244;-70
2024/01/31 00:35:17;;;;;;;14.37;8.63;;;7.60;99.90;;;;;;5048908;28;20233;-68
2024/01/31 00:37:45;;;;;;;13.23;7.80;;;7.60;99.90;;;;;;5048254;28;20218;-69
2024/01/31 00:40:13;;;;;;;12.53;7.03;;;7.60;99.90;;;;;;5048521;28;20238;-70
2024/01/31 00:42:42;;;;;;;12.87;7.13;;;7.70;99.90;;;;;;5049453;28;20208;-68
2024/01/31 00:45:11;;;;;;;10.80;6.33;;;7.70;99.90;;;;;;5049342;28;20201;-69
2024/01/31 00:47:38;;;;;;;13.77;7.97;;;7.70;99.90;;;;;;5047895;28;20195;-69
2024/01/31 00:50:06;;;;;;;12.33;7.30;;;7.80;99.90;;;;;;5048674;28;20212;-69
2024/01/31 00:52:33;;;;;;;12.47;6.93;;;7.80;99.90;;;;;;5048820;28;20191;-69
2024/01/31 00:55:02;;;;;;;16.07;9.43;;;7.80;99.90;;;;;;5049089;28;20208;-68
2024/01/31 00:57:29;;;;;;;14.10;8.27;;;7.80;99.90;;;;;;5047201;28;20359;-69
2024/01/31 00:59:56;;;;;;;15.83;8.13;;;7.80;99.90;;;;;;5048090;28;20197;-69
2024/01/31 01:02:23;;;;;;;12.00;7.60;;;7.80;99.90;;;;;;5049202;28;20313;-69
2024/01/31 01:04:51;;;;;;;12.30;6.97;;;7.80;99.90;;;;;;5048834;28;20770;-70
2024/01/31 01:07:18;;;;;;;13.03;8.10;;;7.80;99.90;;;;;;5048296;28;20289;-70
2024/01/31 01:09:45;;;;;;;12.27;7.13;;;7.80;99.90;;;;;;5049825;28;20290;-70
2024/01/31 01:12:14;;;;;;;16.47;9.00;;;7.90;99.90;;;;;;5049636;28;20212;-70
2024/01/31 01:14:43;;;;;;;20.20;9.90;;;7.80;99.90;;;;;;5048851;28;20211;-70
2024/01/31 01:17:10;;;;;;;22.53;11.53;;;7.90;99.90;;;;;;5047847;28;20214;-68
2024/01/31 01:19:37;;;;;;;23.60;11.67;;;7.80;99.90;;;;;;5050395;28;20190;-69
2024/01/31 01:22:04;;;;;;;21.77;10.93;;;7.80;99.90;;;;;;5051980;28;20208;-68
2024/01/31 01:24:31;;;;;;;21.90;10.17;;;7.80;99.90;;;;;;5051490;28;20201;-69
2024/01/31 01:26:59;;;;;;;32.30;13.00;;;7.80;99.90;;;;;;5052513;28;20225;-68
2024/01/31 01:29:27;;;;;;;28.43;13.50;;;7.80;99.90;;;;;;5051354;28;20205;-68
2024/01/31 01:31:54;;;;;;;25.67;12.57;;;7.80;99.90;;;;;;5052075;28;20193;-68
2024/01/31 01:34:21;;;;;;;32.23;14.57;;;7.70;99.90;;;;;;5051005;28;20585;-69
2024/01/31 01:36:48;;;;;;;31.50;14.00;;;7.70;99.90;;;;;;5051551;28;20539;-70
2024/01/31 01:39:15;;;;;;;29.40;14.10;;;7.70;99.90;;;;;;5051796;28;20217;-69
2024/01/31 01:41:42;;;;;;;29.30;13.10;;;7.70;99.90;;;;;;5050655;28;20564;-68
2024/01/31 01:44:09;;;;;;;33.10;13.43;;;7.70;99.90;;;;;;5045561;28;20272;-67
2024/01/31 01:46:37;;;;;;;28.53;13.17;;;7.70;99.90;;;;;;5044737;28;20199;-68
2024/01/31 01:49:04;;;;;;;29.57;13.60;;;7.70;99.90;;;;;;5046290;28;20198;-70
2024/01/31 01:51:32;;;;;;;28.17;12.23;;;7.70;99.90;;;;;;5050020;28;20229;-69
2024/01/31 01:53:59;;;;;;;24.47;11.13;;;7.70;99.90;;;;;;5052060;28;20214;-69
2024/01/31 01:56:27;;;;;;;28.07;12.00;;;7.70;99.90;;;;;;5051203;28;20291;-69
2024/01/31 01:58:56;;;;;;;40.57;16.40;;;7.70;99.90;;;;;;5051468;28;20526;-67
2024/01/31 02:01:25;;;;;;;43.27;18.53;;;7.70;99.90;;;;;;5051385;28;20596;-68
2024/01/31 02:03:56;;;;;;;38.97;15.97;;;7.60;99.90;;;;;;5051294;28;20293;-68
2024/01/31 02:06:24;;;;;;;34.80;15.80;;;7.60;99.90;;;;;;5050686;28;20198;-68
2024/01/31 02:08:52;;;;;;;34.23;15.10;;;7.60;99.90;;;;;;5051178;28;20202;-69
2024/01/31 02:11:19;;;;;;;32.90;14.53;;;7.60;99.90;;;;;;5050323;28;20213;-68
2024/01/31 02:13:46;;;;;;;35.27;16.03;;;7.60;99.90;;;;;;5040579;28;20736;-70
2024/01/31 02:16:13;;;;;;;34.37;15.43;;;7.60;99.90;;;;;;5051008;28;20198;-69
2024/01/31 02:18:41;;;;;;;24.30;12.70;;;7.50;99.90;;;;;;5050288;28;20294;-69
2024/01/31 02:21:09;;;;;;;28.10;12.80;;;7.50;99.90;;;;;;5051444;28;20236;-70
2024/01/31 02:23:37;;;;;;;25.77;11.67;;;7.50;99.90;;;;;;5052191;28;20591;-69
2024/01/31 02:26:05;;;;;;;22.63;10.80;;;7.50;99.90;;;;;;5048422;28;20275;-69
2024/01/31 02:28:32;;;;;;;24.93;11.53;;;7.50;99.90;;;;;;5049690;28;20205;-68
2024/01/31 02:30:59;;;;;;;19.20;10.23;;;7.50;99.90;;;;;;5048816;28;20186;-69
2024/01/31 02:33:26;;;;;;;17.73;9.73;;;7.50;99.90;;;;;;5050839;28;20580;-69
2024/01/31 02:35:53;;;;;;;17.50;9.70;;;7.50;99.90;;;;;;5050934;28;20226;-69
2024/01/31 02:38:20;;;;;;;19.43;9.73;;;7.50;99.90;;;;;;5050593;28;20203;-69
2024/01/31 02:40:48;;;;;;;20.77;9.47;;;7.40;99.90;;;;;;5051001;28;20533;-68
2024/01/31 02:43:16;;;;;;;19.20;10.23;;;7.40;99.90;;;;;;5049962;28;20225;-68
2024/01/31 02:45:43;;;;;;;21.50;10.93;;;7.40;99.90;;;;;;5050053;28;20202;-68
2024/01/31 02:48:10;;;;;;;23.13;11.47;;;7.40;99.90;;;;;;5049223;28;20202;-70
2024/01/31 02:50:36;;;;;;;28.33;13.43;;;7.50;99.90;;;;;;5050736;28;20221;-68
2024/01/31 02:53:03;;;;;;;22.37;11.47;;;7.50;99.90;;;;;;5051097;28;20264;-69
2024/01/31 02:55:29;;;;;;;20.87;10.33;;;7.50;99.90;;;;;;5050476;28;20245;-69
2024/01/31 02:57:58;;;;;;;21.37;10.30;;;7.60;99.90;;;;;;5049008;28;20198;-69
2024/01/31 03:00:25;;;;;;;13.33;7.97;;;7.60;99.90;;;;;;5050229;28;20438;-68
2024/01/31 03:02:52;;;;;;;21.07;10.87;;;7.60;99.90;;;;;;5049193;28;20319;-68
2024/01/31 03:05:19;;;;;;;28.27;11.83;;;7.60;99.90;;;;;;5050179;28;20255;-69
2024/01/31 03:07:46;;;;;;;27.30;12.03;;;7.60;99.90;;;;;;5050300;28;20244;-68
2024/01/31 03:10:13;;;;;;;17.43;10.10;;;7.60;99.90;;;;;;5050487;28;20218;-69
2024/01/31 03:12:40;;;;;;;17.13;8.97;;;7.60;99.90;;;;;;5050750;28;20513;-70
2024/01/31 03:15:09;;;;;;;20.53;9.53;;;7.60;99.90;;;;;;5048709;28;20812;-68
2024/01/31 03:17:36;;;;;;;15.83;8.47;;;7.60;99.90;;;;;;5048894;28;20221;-69
2024/01/31 03:20:05;;;;;;;18.03;7.73;;;7.60;99.90;;;;;;5048683;28;20209;-69
2024/01/31 03:22:34;;;;;;;11.90;7.20;;;7.60;99.90;;;;;;5048712;28;20547;-69
2024/01/31 03:25:01;;;;;;;15.20;7.57;;;7.60;99.90;;;;;;5050652;28;20285;-69
2024/01/31 03:27:28;;;;;;;12.40;7.00;;;7.60;99.90;;;;;;5047775;28;20610;-68
2024/01/31 03:29:56;;;;;;;18.07;8.60;;;7.60;99.90;;;;;;5049974;28;20228;-68
2024/01/31 03:32:24;;;;;;;16.53;8.17;;;7.60;99.90;;;;;;5049905;28;20723;-69
2024/01/31 03:34:51;;;;;;;15.83;7.87;;;7.60;99.90;;;;;;5049296;28;20210;-69
2024/01/31 03:37:18;;;;;;;18.40;8.40;;;7.60;99.90;;;;;;5048244;28;20194;-69
2024/01/31 03:39:45;;;;;;;15.77;8.07;;;7.60;99.90;;;;;;5048221;28;20205;-68
2024/01/31 03:42:14;;;;;;;19.27;9.43;;;7.60;99.90;;;;;;5048736;28;20653;-69
2024/01/31 03:44:41;;;;;;;22.07;10.27;;;7.60;99.90;;;;;;5048345;28;20280;-68
2024/01/31 03:47:08;;;;;;;19.40;9.63;;;7.60;99.90;;;;;;5049262;28;20203;-70
2024/01/31 03:49:36;;;;;;;16.10;8.97;;;7.70;99.90;;;;;;5048970;28;20251;-69
2024/01/31 03:52:04;;;;;;;23.07;10.33;;;7.70;99.90;;;;;;5049817;28;20261;-70
2024/01/31 03:54:31;;;;;;;15.83;9.30;;;7.70;99.90;;;;;;5049913;28;20214;-68
2024/01/31 03:56:58;;;;;;;15.00;7.87;;;7.70;99.90;;;;;;5049251;28;20625;-69
2024/01/31 03:59:25;;;;;;;25.27;10.80;;;7.70;99.90;;;;;;5049572;28;20217;-69
2024/01/31 04:01:52;;;;;;;20.30;10.83;;;7.60;99.90;;;;;;5049327;28;20201;-69
2024/01/31 04:04:19;;;;;;;19.87;9.80;;;7.60;99.90;;;;;;5049210;28;20229;-71
2024/01/31 04:06:47;;;;;;;18.40;9.90;;;7.70;99.90;;;;;;5048097;28;20193;-68
2024/01/31 04:09:14;;;;;;;19.93;10.23;;;7.70;99.90;;;;;;5044961;28;20190;-68
2024/01/31 04:11:41;;;;;;;19.80;9.47;;;7.70;99.90;;;;;;5048366;28;20202;-68
2024/01/31 04:14:08;;;;;;;21.87;9.13;;;7.70;99.90;;;;;;5048596;28;20884;-69
2024/01/31 04:16:35;;;;;;;19.47;9.03;;;7.70;99.90;;;;;;5048587;28;20230;-68
2024/01/31 04:19:02;;;;;;;14.23;8.47;;;7.60;99.90;;;;;;5049254;28;20196;-68
2024/01/31 04:21:29;;;;;;;13.40;7.33;;;7.60;99.90;;;;;;5045463;28;20198;-68
2024/01/31 04:23:58;;;;;;;19.30;9.00;;;7.60;99.90;;;;;;5049912;28;20208;-69
2024/01/31 04:26:25;;;;;;;15.60;8.60;;;7.60;99.90;;;;;;5046990;28;20727;-69
2024/01/31 04:28:52;;;;;;;16.47;8.63;;;7.60;99.90;;;;;;5048844;28;20199;-69
2024/01/31 04:31:19;;;;;;;22.67;10.50;;;7.60;99.90;;;;;;5046657;28;20251;-69
2024/01/31 04:33:46;;;;;;;25.37;11.47;;;7.60;99.90;;;;;;5048999;28;20226;-68
2024/01/31 04:36:13;;;;;;;17.83;9.87;;;7.60;99.90;;;;;;5048764;28;20600;-69
2024/01/31 04:38:41;;;;;;;22.60;10.50;;;7.60;99.90;;;;;;5049552;28;20915;-69
2024/01/31 04:41:09;;;;;;;25.40;11.90;;;7.60;99.90;;;;;;5047555;28;20640;-69
2024/01/31 04:43:36;;;;;;;24.37;11.87;;;7.60;99.90;;;;;;5049452;28;20236;-69
2024/01/31 04:46:03;;;;;;;26.57;12.57;;;7.60;99.90;;;;;;5048352;28;20221;-69
2024/01/31 04:48:30;;;;;;;21.77;11.37;;;7.60;99.90;;;;;;5048180;28;20508;-69
2024/01/31 04:50:57;;;;;;;19.37;10.53;;;7.60;99.90;;;;;;5050113;28;20269;-69
2024/01/31 04:53:24;;;;;;;18.57;9.40;;;7.60;99.90;;;;;;5053359;28;20228;-68
2024/01/31 04:55:51;;;;;;;18.10;10.10;;;7.50;99.90;;;;;;5053243;28;20315;-68
2024/01/31 04:58:20;;;;;;;20.93;11.77;;;7.50;99.90;;;;;;5050404;28;20196;-69
2024/01/31 05:00:47;;;;;;;24.07;11.60;;;7.50;99.90;;;;;;5046776;28;20188;-69
2024/01/31 05:03:14;;;;;;;22.70;11.40;;;7.50;99.90;;;;;;5049533;28;20229;-68
2024/01/31 05:05:41;;;;;;;20.10;11.47;;;7.50;99.90;;;;;;5052031;28;20194;-69
2024/01/31 05:08:08;;;;;;;21.77;10.90;;;7.50;99.90;;;;;;5052410;28;20255;-68
2024/01/31 05:10:36;;;;;;;23.77;12.50;;;7.50;99.90;;;;;;5052702;28;20244;-69
2024/01/31 05:13:03;;;;;;;20.63;10.40;;;7.50;99.90;;;;;;5051331;28;20628;-68
2024/01/31 05:15:32;;;;;;;22.23;11.47;;;7.40;99.90;;;;;;5052044;28;20341;-68
2024/01/31 05:17:59;;;;;;;18.97;10.73;;;7.50;99.90;;;;;;5051879;28;20278;-68
2024/01/31 05:20:29;;;;;;;20.40;10.77;;;7.50;99.90;;;;;;5052184;28;20202;-68
2024/01/31 05:22:56;;;;;;;20.43;11.17;;;7.50;99.90;;;;;;5052482;28;20280;-69
2024/01/31 05:25:23;;;;;;;24.50;13.17;;;7.50;99.90;;;;;;5052720;28;20600;-68
2024/01/31 05:27:50;;;;;;;24.47;13.30;;;7.50;99.90;;;;;;5051222;28;20245;-68
2024/01/31 05:30:17;;;;;;;24.00;13.07;;;7.50;99.90;;;;;;5052274;28;20236;-70
2024/01/31 05:32:46;;;;;;;22.53;11.40;;;7.50;99.90;;;;;;5049954;28;20937;-69
2024/01/31 05:35:13;;;;;;;21.50;11.87;;;7.50;99.90;;;;;;5052104;28;20634;-69
2024/01/31 05:37:40;;;;;;;14.37;9.27;;;7.50;99.90;;;;;;5051303;28;20252;-69
2024/01/31 05:40:09;;;;;;;15.43;9.37;;;7.50;99.90;;;;;;5052617;28;20225;-69
2024/01/31 05:42:36;;;;;;;15.20;8.40;;;7.60;99.90;;;;;;5052037;28;20289;-69
2024/01/31 05:45:03;;;;;;;18.87;9.90;;;7.60;99.90;;;;;;5051652;28;20225;-69
2024/01/31 05:47:30;;;;;;;16.53;9.53;;;7.60;99.90;;;;;;5050447;28;20195;-68
2024/01/31 05:49:58;;;;;;;15.40;8.80;;;7.60;99.90;;;;;;5052453;28;20229;-70
2024/01/31 05:52:25;;;;;;;16.03;9.67;;;7.70;99.90;;;;;;5051577;28;20194;-70
2024/01/31 05:54:52;;;;;;;16.70;9.27;;;7.70;99.90;;;;;;5052410;28;20726;-69
2024/01/31 05:57:19;;;;;;;18.53;9.47;;;7.70;99.90;;;;;;5051348;28;20932;-69
2024/01/31 05:59:46;;;;;;;14.10;8.50;;;7.70;99.90;;;;;;5052292;28;20651;-69
2024/01/31 06:02:13;;;;;;;9.70;7.00;;;7.80;99.90;;;;;;5051679;28;20228;-68
2024/01/31 06:04:41;;;;;;;11.60;7.20;;;7.80;99.90;;;;;;5050129;28;20206;-68
2024/01/31 06:07:12;;;;;;;13.23;7.30;;;7.80;99.90;;;;;;5050584;28;20191;-68
2024/01/31 06:09:39;;;;;;;10.37;6.50;;;7.80;99.90;;;;;;5041221;28;20305;-69
2024/01/31 06:12:07;;;;;;;11.37;7.60;;;7.80;99.90;;;;;;5052642;28;20201;-67
2024/01/31 06:14:36;;;;;;;18.20;9.27;;;7.90;99.90;;;;;;5051592;28;20194;-69
2024/01/31 06:17:03;;;;;;;17.43;9.43;;;7.90;99.90;;;;;;5050704;28;20580;-69
2024/01/31 06:19:30;;;;;;;18.57;10.40;;;7.90;99.90;;;;;;5050382;28;20285;-69
2024/01/31 06:21:57;;;;;;;24.17;12.83;;;8.00;99.90;;;;;;5050757;28;20268;-69
2024/01/31 06:24:26;;;;;;;26.00;13.10;;;8.00;99.90;;;;;;5051602;28;20539;-69
2024/01/31 06:26:53;;;;;;;27.27;14.63;;;8.00;99.90;;;;;;5049364;28;20597;-69
2024/01/31 06:29:20;;;;;;;25.53;12.07;;;8.10;99.90;;;;;;5048433;28;20287;-69
2024/01/31 06:31:48;;;;;;;18.37;10.43;;;8.10;99.90;;;;;;5051381;28;20215;-69
2024/01/31 06:34:16;;;;;;;18.27;10.20;;;8.10;99.90;;;;;;5050588;28;20191;-69
2024/01/31 06:36:43;;;;;;;15.23;9.07;;;8.00;99.90;;;;;;5050698;28;20206;-69
2024/01/31 06:39:11;;;;;;;13.67;8.40;;;8.00;99.90;;;;;;5049072;28;20297;-69
2024/01/31 06:41:39;;;;;;;14.43;8.70;;;8.00;99.90;;;;;;5051088;28;20248;-69
2024/01/31 06:44:06;;;;;;;13.43;8.00;;;8.00;99.90;;;;;;5050757;28;20205;-69
2024/01/31 06:46:33;;;;;;;16.43;8.17;;;8.00;99.90;;;;;;5050588;28;20207;-69
2024/01/31 06:49:00;;;;;;;12.97;7.50;;;8.00;99.90;;;;;;5050054;28;20233;-69
2024/01/31 06:51:27;;;;;;;12.17;7.47;;;8.10;99.90;;;;;;5050889;28;20542;-69
2024/01/31 06:53:54;;;;;;;13.77;8.20;;;8.10;99.90;;;;;;5050242;28;20301;-68
2024/01/31 06:56:22;;;;;;;14.23;8.30;;;8.10;99.90;;;;;;5050963;28;20657;-68
2024/01/31 06:58:51;;;;;;;14.97;8.77;;;8.20;99.90;;;;;;5048356;28;20222;-69
2024/01/31 07:01:18;;;;;;;12.10;7.73;;;8.20;99.90;;;;;;5050896;28;20610;-69
2024/01/31 07:03:46;;;;;;;11.50;7.23;;;8.20;99.90;;;;;;5048212;28;20602;-69
2024/01/31 07:06:15;;;;;;;11.73;7.83;;;8.20;99.90;;;;;;5046830;28;20199;-69
2024/01/31 07:08:42;;;;;;;12.13;7.73;;;8.30;99.90;;;;;;5025195;28;20284;-69
2024/01/31 07:11:09;;;;;;;13.93;8.40;;;8.30;99.90;;;;;;5044701;28;20199;-69
2024/01/31 07:13:37;;;;;;;18.13;9.97;;;8.30;99.90;;;;;;5039218;28;20213;-68
2024/01/31 07:16:07;;;;;;;18.67;9.10;;;8.40;99.90;;;;;;5045456;28;20305;-68
2024/01/31 07:18:34;;;;;;;15.00;8.17;;;8.40;99.90;;;;;;5040119;28;20205;-68
2024/01/31 07:21:01;;;;;;;18.10;10.00;;;8.40;99.90;;;;;;5042018;28;20962;-68
2024/01/31 07:23:28;;;;;;;17.67;9.70;;;8.40;99.90;;;;;;5036651;28;20222;-69
2024/01/31 07:25:55;;;;;;;14.23;9.20;;;8.40;99.90;;;;;;5040748;28;20250;-68
2024/01/31 07:28:22;;;;;;;13.73;8.63;;;8.50;99.90;;;;;;5044268;28;20196;-69
2024/01/31 07:30:49;;;;;;;12.80;7.93;;;8.50;99.90;;;;;;5044583;28;20202;-69
2024/01/31 07:33:18;;;;;;;12.07;8.27;;;8.50;99.90;;;;;;5045391;28;20273;-69
2024/01/31 07:35:45;;;;;;;12.03;7.73;;;8.50;99.90;;;;;;5042808;28;20218;-69
2024/01/31 07:38:12;;;;;;;12.63;8.57;;;8.50;99.90;;;;;;5044099;28;21397;-68
2024/01/31 07:40:39;;;;;;;13.13;8.10;;;8.50;99.90;;;;;;5045474;28;20205;-69
2024/01/31 07:43:06;;;;;;;14.00;8.90;;;8.60;99.90;;;;;;5043588;28;20236;-69
2024/01/31 07:45:33;;;;;;;13.60;8.93;;;8.60;99.90;;;;;;5040519;28;20256;-68
2024/01/31 07:48:00;;;;;;;14.13;8.77;;;8.60;99.90;;;;;;5041217;28;20215;-69
2024/01/31 07:50:28;;;;;;;12.93;8.27;;;8.60;99.90;;;;;;5041824;28;20201;-69
2024/01/31 07:52:55;;;;;;;12.73;7.87;;;8.60;99.90;;;;;;5042622;28;20342;-69
2024/01/31 07:55:23;;;;;;;8.73;6.83;;;8.60;99.90;;;;;;5041485;28;20245;-68
2024/01/31 07:57:50;;;;;;;10.47;7.43;;;8.60;99.90;;;;;;5040953;28;20300;-69
2024/01/31 08:00:18;;;;;;;12.33;7.37;;;8.60;99.90;;;;;;5040206;28;20189;-69
2024/01/31 08:02:46;;;;;;;11.60;7.27;;;8.70;99.90;;;;;;5044440;28;20233;-68
2024/01/31 08:05:13;;;;;;;13.70;7.67;;;8.70;99.90;;;;;;5045226;28;20206;-70
2024/01/31 08:07:44;;;;;;;16.50;9.27;;;8.90;99.90;;;;;;5044298;28;20187;-68
2024/01/31 08:10:12;;;;;;;13.20;8.97;;;9.10;99.90;;;;;;5044175;28;20238;-70
2024/01/31 08:12:39;;;;;;;14.00;8.73;;;9.10;99.90;;;;;;5041767;28;20270;-69
2024/01/31 08:15:06;;;;;;;13.97;8.70;;;9.20;99.90;;;;;;5046248;28;20194;-68
2024/01/31 08:17:33;;;;;;;11.80;8.27;;;9.20;99.90;;;;;;5042816;28;20220;-70
2024/01/31 08:20:00;;;;;;;12.00;7.57;;;9.10;99.90;;;;;;5044090;28;20209;-69
2024/01/31 08:22:27;;;;;;;11.43;7.73;;;9.10;99.90;;;;;;5045630;28;20204;-69
2024/01/31 08:24:56;;;;;;;15.13;8.97;;;9.20;99.90;;;;;;5046515;28;20205;-69
2024/01/31 08:27:23;;;;;;;13.27;8.13;;;9.40;99.90;;;;;;5047825;28;20195;-69
2024/01/31 08:29:51;;;;;;;12.03;7.97;;;9.50;99.90;;;;;;5046748;28;20203;-70
2024/01/31 08:32:18;;;;;;;12.73;7.67;;;9.50;99.90;;;;;;5050113;28;20282;-69
2024/01/31 08:34:45;;;;;;;15.57;9.70;;;9.50;99.90;;;;;;5046666;28;20204;-69
2024/01/31 08:37:12;;;;;;;13.60;8.90;;;9.50;99.90;;;;;;5048589;28;20270;-69
2024/01/31 08:39:40;;;;;;;16.00;9.80;;;9.60;99.90;;;;;;5047206;28;20283;-69
2024/01/31 08:42:09;;;;;;;13.17;8.40;;;9.70;99.90;;;;;;5042442;28;20296;-69
2024/01/31 08:44:36;;;;;;;12.07;8.13;;;9.80;99.90;;;;;;5046991;28;20307;-69
2024/01/31 08:47:03;;;;;;;14.20;8.50;;;9.90;99.90;;;;;;5046986;28;20224;-69
2024/01/31 08:49:30;;;;;;;11.53;7.63;;;10.00;99.90;;;;;;5044362;28;20645;-69
2024/01/31 08:51:57;;;;;;;10.13;7.10;;;10.00;99.90;;;;;;5049578;28;20215;-69
2024/01/31 08:54:25;;;;;;;12.63;7.93;;;9.90;99.90;;;;;;5047442;28;20650;-69
2024/01/31 08:56:52;;;;;;;15.27;8.00;;;9.90;99.90;;;;;;5050534;28;20220;-69
2024/01/31 08:59:20;;;;;;;12.50;6.87;;;9.80;99.90;;;;;;5046046;28;20210;-69
2024/01/31 09:01:48;;;;;;;10.03;6.20;;;9.80;99.90;;;;;;5045356;28;20197;-69
2024/01/31 09:04:14;;;;;;;11.30;7.10;;;9.70;99.90;;;;;;5048871;28;20228;-69
2024/01/31 09:06:41;;;;;;;12.23;7.40;;;9.70;99.90;;;;;;5046644;28;20196;-70
2024/01/31 09:09:08;;;;;;;10.90;7.20;;;9.70;99.90;;;;;;5039496;28;20222;-69
2024/01/31 09:11:35;;;;;;;9.97;6.87;;;9.60;99.90;;;;;;5047426;28;20195;-69
2024/01/31 09:14:02;;;;;;;9.40;6.07;;;9.50;99.90;;;;;;5043576;28;20191;-69
2024/01/31 09:16:33;;;;;;;11.33;7.17;;;9.50;99.90;;;;;;5046381;28;20709;-69
2024/01/31 09:19:01;;;;;;;13.17;6.57;;;9.50;99.90;;;;;;5046388;28;20203;-68
2024/01/31 09:21:28;;;;;;;10.37;6.20;;;9.50;99.90;;;;;;5044228;28;20196;-69
2024/01/31 09:23:55;;;;;;;7.23;5.27;;;9.50;99.90;;;;;;5044223;28;20297;-70
2024/01/31 09:26:22;;;;;;;7.70;5.67;;;9.50;99.90;;;;;;5040550;28;20191;-69
2024/01/31 09:28:50;;;;;;;6.27;5.03;;;9.50;99.90;;;;;;5042372;28;20276;-69
2024/01/31 09:31:23;;;;;;;5.73;4.87;;;9.60;99.90;;;;;;5046674;28;20197;-69
2024/01/31 09:33:54;;;;;;;7.10;5.13;;;9.60;99.90;;;;;;5038194;28;20831;-68
2024/01/31 09:36:22;;;;;;;7.07;4.83;;;9.60;99.90;;;;;;5048701;28;20208;-69
2024/01/31 09:38:49;;;;;;;5.83;4.70;;;9.60;99.90;;;;;;5047132;28;20202;-69
2024/01/31 09:41:17;;;;;;;6.07;4.33;;;9.60;99.90;;;;;;5043641;28;20205;-69
2024/01/31 09:43:44;;;;;;;5.57;4.53;;;9.60;99.90;;;;;;5044662;28;20661;-69
2024/01/31 09:46:11;;;;;;;6.07;4.60;;;9.60;99.90;;;;;;5045583;28;20232;-69
2024/01/31 09:48:40;;;;;;;4.70;4.03;;;9.60;99.90;;;;;;5043237;28;20206;-69
2024/01/31 09:51:09;;;;;;;5.70;4.20;;;9.60;99.90;;;;;;5045251;28;20334;-69
2024/01/31 09:53:37;;;;;;;4.93;3.97;;;9.60;99.90;;;;;;5045807;28;20214;-69
2024/01/31 09:56:05;;;;;;;4.50;4.10;;;9.60;99.90;;;;;;5045793;28;20220;-69
2024/01/31 09:58:32;;;;;;;4.73;3.63;;;9.60;99.90;;;;;;5045920;28;20290;-68
2024/01/31 10:01:00;;;;;;;4.13;3.60;;;9.60;99.90;;;;;;5049164;28;20235;-69
2024/01/31 10:03:28;;;;;;;3.93;3.47;;;9.50;99.90;;;;;;5046114;28;20696;-68
2024/01/31 10:05:55;;;;;;;3.03;2.80;;;9.50;99.90;;;;;;5046070;28;20204;-67
2024/01/31 10:08:23;;;;;;;5.43;3.27;;;9.60;99.90;;;;;;5038925;28;20198;-70
2024/01/31 10:10:51;;;;;;;6.03;4.23;;;9.50;99.90;;;;;;5043152;28;20202;-68
2024/01/31 10:13:18;;;;;;;5.47;3.97;;;9.50;99.90;;;;;;5040953;28;20573;-68
2024/01/31 10:15:45;;;;;;;5.67;4.03;;;9.50;99.90;;;;;;5047924;28;20208;-69
2024/01/31 10:18:15;;;;;;;3.80;3.33;;;9.50;99.90;;;;;;5044888;28;20202;-68
2024/01/31 10:20:44;;;;;;;5.47;4.03;;;9.50;99.90;;;;;;5043420;28;20201;-70
2024/01/31 10:23:15;;;;;;;4.43;3.63;;;9.50;99.90;;;;;;5047186;28;20281;-69
2024/01/31 10:25:43;;;;;;;4.07;3.57;;;9.50;99.90;;;;;;5048342;28;20197;-69
2024/01/31 10:28:11;;;;;;;4.67;4.00;;;9.50;99.90;;;;;;5043280;28;20211;-69
2024/01/31 10:30:41;;;;;;;3.70;3.10;;;9.50;99.90;;;;;;5044396;28;20298;-68
2024/01/31 10:33:09;;;;;;;3.40;3.10;;;9.50;99.90;;;;;;5041078;28;20198;-69
2024/01/31 10:35:37;;;;;;;3.10;2.80;;;9.50;99.90;;;;;;5044830;28;20212;-69
2024/01/31 10:38:05;;;;;;;2.33;2.13;;;9.50;99.90;;;;;;5036897;28;20680;-68
2024/01/31 10:40:34;;;;;;;2.20;1.93;;;9.50;99.90;;;;;;5047872;28;20716;-69
2024/01/31 10:43:04;;;;;;;1.80;1.70;;;9.50;99.90;;;;;;5041882;28;20321;-69
2024/01/31 10:45:32;;;;;;;2.10;1.90;;;9.50;99.90;;;;;;5041295;28;20202;-69
2024/01/31 10:47:59;;;;;;;2.53;1.70;;;9.50;99.90;;;;;;5045479;28;20189;-69
2024/01/31 10:50:27;;;;;;;1.50;1.40;;;9.50;99.90;;;;;;5042708;28;20209;-70
2024/01/31 10:52:55;;;;;;;1.40;1.30;;;9.50;99.90;;;;;;5044890;28;20769;-69
2024/01/31 10:55:23;;;;;;;1.20;1.10;;;9.50;99.90;;;;;;5047366;28;20919;-68
2024/01/31 10:57:50;;;;;;;2.57;1.00;;;9.40;99.90;;;;;;5046314;28;20468;-69
2024/01/31 11:00:25;;;;;;;1.13;0.80;;;9.40;99.90;;;;;;5045778;28;20204;-68
2024/01/31 11:02:52;;;;;;;1.03;0.93;;;9.40;99.90;;;;;;5043454;28;20532;-68
2024/01/31 11:05:20;;;;;;;1.30;1.20;;;9.30;99.90;;;;;;5039937;28;20250;-69
2024/01/31 11:07:47;;;;;;;1.10;1.00;;;9.30;99.90;;;;;;5043122;28;20188;-70
2024/01/31 11:10:17;;;;;;;1.97;1.10;;;9.30;99.90;;;;;;5038341;28;20258;-69
2024/01/31 11:12:44;;;;;;;0.80;0.80;;;9.30;99.90;;;;;;5045928;28;20195;-69
2024/01/31 11:15:11;;;;;;;1.27;1.17;;;9.20;99.90;;;;;;5046377;28;20228;-69
2024/01/31 11:17:44;;;;;;;5.07;4.40;;;9.10;99.90;;;;;;5047807;28;20597;-69
2024/01/31 11:20:14;;;;;;;2.37;1.73;;;9.10;99.90;;;;;;5046721;28;20656;-68
2024/01/31 11:22:42;;;;;;;1.07;1.07;;;9.00;99.90;;;;;;5046464;28;20196;-70
2024/01/31 11:25:09;;;;;;;1.00;1.00;;;9.00;99.90;;;;;;5044509;28;20191;-68
2024/01/31 11:27:36;;;;;;;0.90;0.90;;;8.90;99.90;;;;;;5045687;28;20616;-69
2024/01/31 11:30:05;;;;;;;1.73;1.50;;;8.90;99.90;;;;;;5038424;28;20194;-69
2024/01/31 11:32:32;;;;;;;1.50;1.40;;;8.90;99.90;;;;;;5044856;28;20256;-68
2024/01/31 11:35:04;;;;;;;1.20;1.17;;;8.90;99.90;;;;;;5042724;28;20193;-68
2024/01/31 11:37:33;;;;;;;0.90;0.90;;;8.80;99.90;;;;;;5041598;28;20761;-68
2024/01/31 11:40:00;;;;;;;0.97;0.97;;;8.90;99.90;;;;;;5045045;28;20215;-68
2024/01/31 11:42:28;;;;;;;1.23;0.93;;;9.00;99.90;;;;;;5040756;28;20556;-69
2024/01/31 11:44:55;;;;;;;1.30;1.20;;;9.10;99.90;;;;;;5041562;28;20302;-68
2024/01/31 11:47:22;;;;;;;1.00;0.90;;;9.10;99.90;;;;;;5042181;28;20277;-68
2024/01/31 11:49:49;;;;;;;1.57;1.40;;;9.10;99.90;;;;;;5042561;28;20290;-69
2024/01/31 11:52:39;;;;;;;1.43;1.33;;;9.00;99.90;;;;;;5038390;28;20288;-70
2024/01/31 11:55:07;;;;;;;2.03;1.33;;;9.00;99.90;;;;;;5042011;28;20195;-69
2024/01/31 11:57:34;;;;;;;1.60;1.10;;;8.90;99.90;;;;;;5043913;28;20216;-69
2024/01/31 12:00:04;;;;;;;1.20;1.10;;;8.90;99.90;;;;;;5041232;28;20273;-69
2024/01/31 12:02:39;;;;;;;1.23;1.13;;;8.80;99.90;;;;;;5041898;28;20239;-69
2024/01/31 12:05:07;;;;;;;2.43;1.03;;;8.80;99.90;;;;;;5038516;28;20212;-69
2024/01/31 12:07:35;;;;;;;0.83;0.83;;;8.70;99.90;;;;;;5044229;28;20187;-70
2024/01/31 12:10:04;;;;;;;1.20;1.17;;;8.60;99.90;;;;;;5033686;28;20227;-69
2024/01/31 12:12:31;;;;;;;1.77;1.07;;;8.60;99.90;;;;;;5034199;28;20194;-70
2024/01/31 12:14:58;;;;;;;1.73;1.60;;;8.60;99.90;;;;;;5046152;28;20669;-68
2024/01/31 12:17:27;;;;;;;1.60;1.20;;;8.60;99.90;;;;;;5042831;28;20216;-68
2024/01/31 12:20:04;;;;;;;2.23;1.00;;;8.60;99.90;;;;;;5045236;28;20205;-69
2024/01/31 12:22:32;;;;;;;2.73;1.47;;;8.50;99.90;;;;;;5045497;28;20201;-70
2024/01/31 12:24:59;;;;;;;1.27;1.10;;;8.50;99.90;;;;;;5045451;28;20301;-69
2024/01/31 12:27:28;;;;;;;1.60;1.50;;;8.50;99.90;;;;;;5043914;28;20208;-69
2024/01/31 12:29:54;;;;;;;1.57;1.33;;;8.50;99.90;;;;;;5044162;28;20266;-68
2024/01/31 12:32:21;;;;;;;3.80;1.80;;;8.50;99.90;;;;;;5040582;28;20288;-69
2024/01/31 12:34:48;;;;;;;1.63;1.23;;;8.50;99.90;;;;;;5042229;28;20513;-69
2024/01/31 12:37:15;;;;;;;1.67;1.27;;;8.40;99.90;;;;;;5044980;28;20780;-69
2024/01/31 12:39:43;;;;;;;4.20;2.50;;;8.40;99.90;;;;;;5043924;28;20228;-70
2024/01/31 12:42:10;;;;;;;2.07;1.77;;;8.40;99.90;;;;;;5045970;28;20725;-69
2024/01/31 12:44:38;;;;;;;8.57;1.60;;;8.40;99.90;;;;;;5044757;28;20614;-69
2024/01/31 12:47:06;;;;;;;3.80;2.00;;;8.40;99.90;;;;;;5044180;28;20195;-70
2024/01/31 12:49:34;;;;;;;1.60;1.50;;;8.40;99.90;;;;;;5043167;28;20653;-71